Time;durP1;ratioP1;P1;durP2;ratioP2;P2;SDS_P1;SDS_P2;PMS_P1;PMS_P2;Temp;Humidity;BMP_temperature;BMP_pressure;BME280_temperature;BME280_humidity;BME280_pressure;Samples;Min_cycle;Max_cycle;Signal;HPM_P1;HPM_P2
2023/08/02 00:00:04;;;;;;;3.05;2.10;;;;;;;13.12;94.29;95260.94;2066219;28;20046;-58
2023/08/02 00:01:12;;;;;;;6.10;2.78;;;;;;;13.16;93.90;95257.19;2066301;28;20458;-57
2023/08/02 00:02:13;;;;;;;3.10;1.90;;;;;;;13.23;93.24;95263.66;2066271;28;20046;-58
2023/08/02 00:03:15;;;;;;;3.80;2.00;;;;;;;13.25;93.03;95258.31;2066182;28;20062;-57
2023/08/02 00:04:16;;;;;;;3.70;1.70;;;;;;;13.19;93.02;95253.56;2065972;28;20410;-58
2023/08/02 00:05:17;;;;;;;5.00;2.28;;;;;;;13.22;92.73;95258.53;2065750;28;20046;-57
2023/08/02 00:06:18;;;;;;;4.45;2.30;;;;;;;13.23;92.34;95254.97;2066319;28;20403;-57
2023/08/02 00:07:19;;;;;;;4.93;1.95;;;;;;;13.22;92.37;95254.16;2066225;28;20054;-57
2023/08/02 00:08:21;;;;;;;3.65;2.15;;;;;;;13.24;92.17;95248.84;2066196;28;20054;-57
2023/08/02 00:09:22;;;;;;;6.70;2.03;;;;;;;13.22;92.19;95254.16;2066330;28;20050;-57
2023/08/02 00:10:23;;;;;;;2.85;2.10;;;;;;;13.19;92.16;95253.56;2066279;28;20061;-57
2023/08/02 00:11:24;;;;;;;4.05;2.20;;;;;;;13.15;92.01;95246.88;2066337;28;20061;-57
2023/08/02 00:12:27;;;;;;;5.78;2.13;;;;;;;13.14;92.11;95251.25;2066213;28;20050;-58
2023/08/02 00:13:28;;;;;;;4.38;2.17;;;;;;;13.09;92.33;95249.91;2065695;28;20065;-57
2023/08/02 00:14:30;;;;;;;5.35;2.20;;;;;;;13.02;92.43;95245.13;2065668;28;20046;-57
2023/08/02 00:15:31;;;;;;;5.35;2.08;;;;;;;13.03;93.00;95249.38;2065366;28;20483;-57
2023/08/02 00:16:33;;;;;;;2.72;1.67;;;;;;;13.00;93.05;95256.59;2066230;28;20047;-57
2023/08/02 00:17:34;;;;;;;3.90;2.20;;;;;;;12.97;93.03;95249.81;2065154;28;20050;-57
2023/08/02 00:18:35;;;;;;;4.60;1.90;;;;;;;12.96;93.32;95258.59;2065819;28;20050;-57
2023/08/02 00:19:36;;;;;;;4.57;2.17;;;;;;;12.94;93.45;95249.19;2066227;28;20474;-57
2023/08/02 00:20:37;;;;;;;7.65;2.40;;;;;;;12.86;93.18;95241.91;2066240;28;20046;-57
2023/08/02 00:21:39;;;;;;;4.30;2.38;;;;;;;12.90;93.40;95250.34;2066220;28;20466;-57
2023/08/02 00:22:40;;;;;;;4.78;2.20;;;;;;;12.86;93.46;95251.50;2065693;28;20054;-57
2023/08/02 00:23:41;;;;;;;4.50;2.10;;;;;;;12.86;93.65;95246.28;2066037;28;20054;-57
2023/08/02 00:24:42;;;;;;;3.30;2.10;;;;;;;12.82;93.68;95250.84;2066041;28;20050;-57
2023/08/02 00:25:43;;;;;;;4.43;1.98;;;;;;;12.80;93.50;95248.38;2066224;28;20050;-57
2023/08/02 00:26:44;;;;;;;4.10;2.30;;;;;;;12.78;93.81;95244.19;2065758;28;20062;-57
2023/08/02 00:27:45;;;;;;;3.25;2.10;;;;;;;12.67;94.09;95241.47;2057575;28;20055;-57
2023/08/02 00:28:46;;;;;;;4.32;2.17;;;;;;;12.74;93.84;95246.16;2057246;28;20055;-57
2023/08/02 00:29:49;;;;;;;7.15;2.63;;;;;;;12.74;93.89;95240.94;2057126;28;20519;-57
2023/08/02 00:30:50;;;;;;;4.88;2.67;;;;;;;12.76;93.67;95240.84;2064974;28;20053;-57
2023/08/02 00:31:51;;;;;;;4.95;2.33;;;;;;;12.74;93.61;95246.16;2066020;28;20493;-58
2023/08/02 00:32:53;;;;;;;3.83;1.88;;;;;;;12.73;93.65;95241.91;2066108;28;20046;-58
2023/08/02 00:33:54;;;;;;;5.72;2.47;;;;;;;12.72;93.41;95239.38;2066125;28;20050;-57
2023/08/02 00:34:55;;;;;;;5.40;2.50;;;;;;;12.69;93.66;95244.81;2065738;28;20065;-57
2023/08/02 00:35:56;;;;;;;4.28;1.98;;;;;;;12.68;93.45;95243.16;2057307;28;20051;-57
2023/08/02 00:36:57;;;;;;;6.32;2.35;;;;;;;12.65;93.63;95243.34;2048494;29;20510;-57
2023/08/02 00:37:58;;;;;;;3.65;2.17;;;;;;;12.64;93.77;95247.72;2049636;29;20058;-57
2023/08/02 00:39:00;;;;;;;6.55;2.60;;;;;;;12.62;93.61;95244.41;2056789;28;20054;-58
2023/08/02 00:40:01;;;;;;;5.72;2.40;;;;;;;12.62;93.79;95241.78;2049206;29;20165;-57
2023/08/02 00:41:05;;;;;;;4.43;2.20;;;;;;;12.60;93.56;95246.25;2049050;29;20051;-57
2023/08/02 00:42:06;;;;;;;4.82;2.15;;;;;;;12.56;93.61;95243.03;2066001;28;20046;-57
2023/08/02 00:43:07;;;;;;;5.95;2.30;;;;;;;12.53;93.95;95240.63;2065766;28;20059;-57
2023/08/02 00:44:08;;;;;;;5.28;2.60;;;;;;;12.56;93.42;95237.84;2066030;28;20049;-57
2023/08/02 00:45:09;;;;;;;4.43;2.40;;;;;;;12.57;93.69;95241.25;2065763;28;20054;-57
2023/08/02 00:46:13;;;;;;;4.68;2.38;;;;;;;12.55;93.52;95235.31;2056719;28;20073;-57
2023/08/02 00:47:14;;;;;;;8.38;2.55;;;;;;;12.53;93.89;95237.19;2057494;28;20062;-57
2023/08/02 00:48:15;;;;;;;4.25;2.53;;;;;;;12.52;94.22;95233.75;2066130;28;20069;-57
2023/08/02 00:49:16;;;;;;;6.43;2.72;;;;;;;12.51;94.13;95239.91;2057202;28;20495;-57
2023/08/02 00:50:20;;;;;;;3.88;2.22;;;;;;;12.43;93.95;95225.72;2057515;28;20058;-58
2023/08/02 00:51:21;;;;;;;5.93;2.55;;;;;;;12.49;93.88;95233.13;2057517;28;20483;-57
2023/08/02 00:52:23;;;;;;;5.95;2.38;;;;;;;12.41;93.73;95220.63;2056966;28;20050;-57
2023/08/02 00:53:24;;;;;;;11.85;2.55;;;;;;;12.46;93.95;95234.16;2065102;28;20054;-58
2023/08/02 00:54:25;;;;;;;7.63;2.97;;;;;;;12.47;94.04;95238.44;2065562;28;20058;-58
2023/08/02 00:55:26;;;;;;;5.88;2.30;;;;;;;12.46;94.39;95235.94;2057763;28;20054;-57
2023/08/02 00:56:28;;;;;;;3.53;2.30;;;;;;;12.45;94.57;95232.47;2048905;28;20059;-58
2023/08/02 00:57:29;;;;;;;5.32;2.55;;;;;;;12.48;94.26;95234.91;2057076;28;20051;-58
2023/08/02 00:58:30;;;;;;;4.05;2.47;;;;;;;12.49;94.21;95236.56;2056764;28;20050;-57
2023/08/02 00:59:31;;;;;;;3.63;2.30;;;;;;;12.50;94.30;95235.63;2049252;29;20063;-57
2023/08/02 01:00:32;;;;;;;5.85;2.17;;;;;;;12.51;93.71;95237.31;2057145;28;20403;-57
2023/08/02 01:01:34;;;;;;;6.93;2.95;;;;;;;12.53;94.13;95235.41;2056476;28;20055;-57
2023/08/02 01:02:35;;;;;;;4.20;2.38;;;;;;;12.46;93.78;95215.13;2056200;28;20562;-57
2023/08/02 01:03:37;;;;;;;6.00;2.65;;;;;;;12.55;94.32;95224.91;2065673;28;20053;-57
2023/08/02 01:04:38;;;;;;;5.65;2.35;;;;;;;12.55;93.84;95227.50;2064380;28;20062;-57
2023/08/02 01:05:42;;;;;;;5.13;2.50;;;;;;;12.57;93.81;95229.06;2041576;29;20056;-57
2023/08/02 01:07:08;;;;;;;6.13;2.78;;;;;;;12.58;94.02;95228.13;2041905;28;20056;-57
2023/08/02 01:08:11;;;;;;;4.50;2.33;;;;;;;12.58;94.06;95227.28;2060387;28;20050;-57
2023/08/02 01:09:26;;;;;;;4.63;2.30;;;;;;;12.57;93.43;95220.44;2049250;29;20055;-57
2023/08/02 01:10:36;;;;;;;7.40;2.72;;;;;;;12.59;94.07;95215.97;2049739;28;20055;-58
2023/08/02 01:11:40;;;;;;;5.10;2.38;;;;;;;12.53;93.58;95204.16;2051961;28;20066;-57
2023/08/02 01:12:44;;;;;;;6.15;2.70;;;;;;;12.59;93.79;95215.97;2057151;28;20051;-57
2023/08/02 01:13:50;;;;;;;4.45;2.60;;;;;;;12.47;93.67;95190.72;2049101;29;20051;-57
2023/08/02 01:14:53;;;;;;;6.75;2.33;;;;;;;12.59;93.52;95208.16;2049849;28;20070;-57
2023/08/02 01:15:54;;;;;;;3.97;2.30;;;;;;;12.60;93.83;95206.38;2057381;28;20047;-57
2023/08/02 01:16:56;;;;;;;6.10;2.60;;;;;;;12.59;93.74;95208.16;2057013;28;20403;-57
2023/08/02 01:17:57;;;;;;;4.90;2.83;;;;;;;12.58;93.77;95206.47;2064514;28;20050;-57
2023/08/02 01:19:00;;;;;;;6.60;2.30;;;;;;;12.57;93.63;95208.22;2049268;28;20063;-57
2023/08/02 01:20:03;;;;;;;6.30;2.85;;;;;;;12.57;93.87;95205.63;2041248;28;20051;-57
2023/08/02 01:21:04;;;;;;;8.70;3.38;;;;;;;12.57;94.04;95203.03;2057676;28;20061;-57
2023/08/02 01:22:06;;;;;;;8.82;2.85;;;;;;;12.57;93.86;95203.03;2057068;28;20530;-57
2023/08/02 01:23:07;;;;;;;6.22;2.53;;;;;;;12.57;93.63;95205.63;2057002;28;20047;-57
2023/08/02 01:24:08;;;;;;;6.35;2.50;;;;;;;12.50;94.09;95188.75;2065404;28;20065;-58
2023/08/02 01:25:09;;;;;;;8.55;2.83;;;;;;;12.55;94.01;95193.66;2064914;28;20057;-57
2023/08/02 01:26:10;;;;;;;7.10;2.63;;;;;;;12.52;93.93;95189.47;2065024;28;20398;-57
2023/08/02 01:27:23;;;;;;;4.82;2.60;;;;;;;12.55;94.23;95193.66;2056440;28;20059;-57
2023/08/02 01:28:24;;;;;;;5.55;2.78;;;;;;;12.51;93.96;95180.00;2048603;29;20051;-57
2023/08/02 01:29:25;;;;;;;6.65;3.25;;;;;;;12.55;94.15;95191.03;2034614;29;20547;-57
2023/08/02 01:30:30;;;;;;;8.95;3.22;;;;;;;12.53;93.91;95188.53;2048897;29;20062;-57
2023/08/02 01:31:32;;;;;;;6.57;3.15;;;;;;;12.52;93.94;95186.88;2049411;28;20496;-57
2023/08/02 01:32:33;;;;;;;5.40;2.80;;;;;;;12.51;94.17;95182.63;2056857;28;20066;-57
2023/08/02 01:33:37;;;;;;;5.20;2.55;;;;;;;12.49;93.82;95175.84;2065258;28;20046;-57
2023/08/02 01:34:39;;;;;;;8.63;2.95;;;;;;;12.44;94.56;95170.09;2056858;28;20120;-57
2023/08/02 01:35:40;;;;;;;4.97;2.90;;;;;;;12.42;94.84;95167.59;2056969;28;20058;-57
2023/08/02 01:36:42;;;;;;;5.05;2.72;;;;;;;12.42;94.60;95172.81;2057017;28;20058;-57
2023/08/02 01:37:43;;;;;;;4.22;2.90;;;;;;;12.42;94.90;95169.38;2057060;28;20475;-57
2023/08/02 01:38:44;;;;;;;5.25;3.08;;;;;;;12.34;94.67;95170.72;2057155;28;20436;-58
2023/08/02 01:39:45;;;;;;;9.45;2.97;;;;;;;12.35;95.07;95166.38;2049268;28;20055;-57
2023/08/02 01:40:46;;;;;;;6.70;3.30;;;;;;;12.35;95.06;95169.78;2056949;28;20063;-57
2023/08/02 01:41:47;;;;;;;7.00;2.92;;;;;;;12.35;95.11;95171.56;2056726;28;20478;-57
2023/08/02 01:42:49;;;;;;;6.68;3.13;;;;;;;12.34;95.19;95169.88;2048963;29;20062;-57
2023/08/02 01:43:50;;;;;;;6.57;3.10;;;;;;;12.29;95.27;95164.97;2056899;28;20058;-57
2023/08/02 01:44:51;;;;;;;6.03;3.20;;;;;;;12.21;94.92;95161.22;2065868;28;20054;-57
2023/08/02 01:45:52;;;;;;;7.20;3.53;;;;;;;12.21;95.15;95163.84;2056485;28;20047;-57
2023/08/02 01:46:53;;;;;;;7.22;2.88;;;;;;;12.21;95.78;95162.06;2056238;28;20403;-57
2023/08/02 01:47:55;;;;;;;4.88;3.25;;;;;;;12.22;96.14;95166.34;2065675;28;20054;-57
2023/08/02 01:48:56;;;;;;;5.72;3.33;;;;;;;12.21;96.14;95169.03;2065054;28;20481;-57
2023/08/02 01:49:58;;;;;;;5.85;2.95;;;;;;;12.17;95.70;95170.19;2065713;28;20050;-57
2023/08/02 01:50:59;;;;;;;5.30;3.00;;;;;;;12.08;96.10;95161.19;2065458;28;20042;-57
2023/08/02 01:52:00;;;;;;;7.95;3.72;;;;;;;12.16;96.43;95171.09;2064928;28;20447;-57
2023/08/02 01:53:01;;;;;;;6.47;3.72;;;;;;;12.15;96.57;95167.69;2065384;28;20053;-57
2023/08/02 01:54:02;;;;;;;7.75;3.35;;;;;;;12.12;96.49;95166.13;2056619;28;20051;-57
2023/08/02 01:55:04;;;;;;;6.07;3.58;;;;;;;12.09;96.37;95165.50;2056429;28;20050;-57
2023/08/02 01:56:05;;;;;;;5.65;3.85;;;;;;;12.09;96.75;95163.72;2056652;28;20042;-58
2023/08/02 01:57:06;;;;;;;6.75;3.33;;;;;;;12.06;97.01;95156.13;2056337;28;20042;-57
2023/08/02 01:58:07;;;;;;;6.78;3.63;;;;;;;12.10;96.47;95170.56;2048475;29;20076;-57
2023/08/02 01:59:08;;;;;;;5.30;3.72;;;;;;;12.13;96.61;95159.13;2059672;28;20054;-58
2023/08/02 02:00:10;;;;;;;6.40;3.78;;;;;;;12.13;96.25;95160.00;2057215;28;20058;-57
2023/08/02 02:01:14;;;;;;;7.13;3.65;;;;;;;12.09;96.51;95157.69;2057513;28;20043;-57
2023/08/02 02:02:16;;;;;;;7.65;3.83;;;;;;;12.10;96.51;95159.34;2056331;28;20499;-57
2023/08/02 02:03:17;;;;;;;7.20;3.42;;;;;;;12.00;96.19;95151.34;2049019;28;20059;-57
2023/08/02 02:04:18;;;;;;;8.05;3.88;;;;;;;12.04;96.90;95155.38;2056586;28;20047;-57
2023/08/02 02:05:19;;;;;;;10.90;3.70;;;;;;;12.03;96.59;95161.53;2065110;28;20059;-57
2023/08/02 02:06:20;;;;;;;8.13;3.70;;;;;;;12.06;96.51;95163.09;2065450;28;20069;-57
2023/08/02 02:07:22;;;;;;;7.15;4.35;;;;;;;12.03;96.68;95158.06;2065104;28;20394;-57
2023/08/02 02:08:23;;;;;;;6.35;3.97;;;;;;;12.02;96.58;95152.03;2065622;28;20062;-57
2023/08/02 02:09:24;;;;;;;7.25;3.92;;;;;;;12.04;96.99;95157.16;2065255;28;20054;-57
2023/08/02 02:10:25;;;;;;;8.93;4.00;;;;;;;12.02;96.91;95148.59;2056397;28;20062;-57
2023/08/02 02:11:26;;;;;;;6.75;3.53;;;;;;;12.04;96.72;95144.97;2056760;28;20057;-57
2023/08/02 02:12:28;;;;;;;6.03;3.63;;;;;;;12.04;96.99;95144.97;2056843;28;20062;-57
2023/08/02 02:13:29;;;;;;;6.50;3.90;;;;;;;12.06;96.60;95137.06;2056606;28;20061;-57
2023/08/02 02:14:30;;;;;;;6.38;4.05;;;;;;;12.10;96.11;95128.13;2065058;28;20065;-57
2023/08/02 02:15:31;;;;;;;5.25;4.10;;;;;;;12.18;96.36;95133.63;2065399;28;20057;-58
2023/08/02 02:16:32;;;;;;;7.13;4.20;;;;;;;12.18;95.77;95125.81;2064961;28;20054;-58
2023/08/02 02:17:34;;;;;;;4.70;3.67;;;;;;;12.21;96.15;95122.19;2056791;28;20061;-58
2023/08/02 02:18:35;;;;;;;6.03;3.97;;;;;;;12.19;95.85;95118.84;2049421;29;20062;-57
2023/08/02 02:19:36;;;;;;;8.52;4.25;;;;;;;12.16;95.57;95117.28;2058363;28;20070;-58
2023/08/02 02:20:37;;;;;;;6.70;4.15;;;;;;;12.11;95.89;95114.19;2065947;28;20438;-58
2023/08/02 02:21:38;;;;;;;10.50;4.13;;;;;;;12.06;95.94;95114.47;2067064;28;20077;-57
2023/08/02 02:22:39;;;;;;;7.80;4.30;;;;;;;12.03;96.22;95111.22;2067214;28;20140;-58
2023/08/02 02:23:40;;;;;;;10.30;4.15;;;;;;;12.04;96.18;95110.31;2058113;28;20066;-58
2023/08/02 02:24:41;;;;;;;6.40;4.03;;;;;;;12.03;95.83;95113.84;2057736;28;20062;-57
2023/08/02 02:25:43;;;;;;;7.65;4.32;;;;;;;12.04;95.75;95110.31;2066830;28;20054;-57
2023/08/02 02:26:44;;;;;;;7.18;4.45;;;;;;;12.06;95.95;95108.44;2066998;28;20050;-58
2023/08/02 02:27:45;;;;;;;6.45;3.83;;;;;;;12.01;95.47;95106.16;2066549;28;20065;-58
2023/08/02 02:28:46;;;;;;;9.63;4.22;;;;;;;12.00;96.00;95108.84;2067165;28;20058;-57
2023/08/02 02:29:47;;;;;;;8.07;4.07;;;;;;;12.00;95.78;95111.44;2066917;28;20065;-58
2023/08/02 02:30:48;;;;;;;7.70;3.97;;;;;;;11.96;95.80;95116.03;2066689;28;20054;-58
2023/08/02 02:31:50;;;;;;;8.02;4.10;;;;;;;11.92;95.86;95098.94;2066542;28;20441;-58
2023/08/02 02:32:52;;;;;;;8.35;4.57;;;;;;;11.89;96.33;95099.16;2049462;29;20059;-58
2023/08/02 02:33:53;;;;;;;6.28;4.47;;;;;;;11.88;96.35;95097.50;2050367;28;20095;-58
2023/08/02 02:34:54;;;;;;;6.43;3.95;;;;;;;11.93;96.04;95102.41;2066936;28;20042;-58
2023/08/02 02:35:56;;;;;;;11.68;4.32;;;;;;;11.93;96.00;95110.22;2067125;28;20053;-57
2023/08/02 02:36:57;;;;;;;7.75;4.65;;;;;;;11.89;96.11;95096.53;2066219;28;20062;-57
2023/08/02 02:37:58;;;;;;;7.07;4.28;;;;;;;11.89;96.06;95101.75;2066271;28;20065;-58
2023/08/02 02:38:59;;;;;;;12.55;5.40;;;;;;;11.87;96.53;95106.25;2066187;28;20050;-57
2023/08/02 02:40:01;;;;;;;8.57;4.60;;;;;;;11.80;96.11;95097.13;2067091;28;20047;-58
2023/08/02 02:41:02;;;;;;;8.55;4.60;;;;;;;11.81;96.04;95098.78;2058606;28;20047;-57
2023/08/02 02:42:03;;;;;;;8.98;4.80;;;;;;;11.81;96.27;95112.63;2057584;28;20054;-57
2023/08/02 02:43:04;;;;;;;10.50;5.05;;;;;;;11.78;96.06;95107.63;2066986;28;20057;-58
2023/08/02 02:44:06;;;;;;;8.00;4.57;;;;;;;11.78;96.09;95110.22;2066781;28;20505;-58
2023/08/02 02:45:08;;;;;;;9.25;4.72;;;;;;;11.76;95.92;95101.72;2066900;28;20050;-57
2023/08/02 02:46:10;;;;;;;10.38;4.95;;;;;;;11.76;96.27;95108.66;2058049;28;20061;-58
2023/08/02 02:47:12;;;;;;;8.32;4.50;;;;;;;11.76;96.04;95111.28;2057951;28;20061;-58
2023/08/02 02:48:13;;;;;;;9.20;5.15;;;;;;;11.75;96.37;95101.81;2058440;28;20051;-58
2023/08/02 02:49:14;;;;;;;8.15;4.50;;;;;;;11.73;96.47;95104.50;2066340;28;20391;-57
2023/08/02 02:50:15;;;;;;;7.93;4.78;;;;;;;11.71;96.04;95101.19;2066586;28;20061;-58
2023/08/02 02:51:17;;;;;;;8.27;4.75;;;;;;;11.71;95.93;95098.59;2067176;28;20050;-58
2023/08/02 02:52:18;;;;;;;7.55;4.93;;;;;;;11.70;95.82;95100.34;2057997;28;20051;-57
2023/08/02 02:53:20;;;;;;;8.85;4.78;;;;;;;11.68;96.53;95102.22;2058208;28;20511;-57
2023/08/02 02:54:21;;;;;;;7.90;4.90;;;;;;;11.61;95.90;95085.34;2066622;28;20061;-57
2023/08/02 02:55:23;;;;;;;9.32;5.60;;;;;;;11.62;96.04;95092.19;2066897;28;20057;-58
2023/08/02 02:56:24;;;;;;;8.07;4.90;;;;;;;11.59;96.54;95096.78;2066856;28;20065;-58
2023/08/02 02:57:25;;;;;;;8.40;5.20;;;;;;;11.55;96.11;95083.16;2066848;28;20497;-57
2023/08/02 02:58:26;;;;;;;11.05;5.10;;;;;;;11.52;96.57;95085.97;2066596;28;20061;-58
2023/08/02 02:59:28;;;;;;;8.25;5.03;;;;;;;11.41;96.85;95076.25;2066503;28;20062;-57
2023/08/02 03:00:31;;;;;;;12.05;5.68;;;;;;;11.44;97.40;95090.81;2066914;28;20054;-57
2023/08/02 03:01:32;;;;;;;8.77;5.40;;;;;;;11.40;96.75;95081.56;2058386;28;20050;-57
2023/08/02 03:02:34;;;;;;;11.13;5.68;;;;;;;11.33;97.79;95081.09;2058505;28;20545;-58
2023/08/02 03:03:35;;;;;;;8.80;5.65;;;;;;;11.32;97.09;95084.63;2066327;28;20387;-58
2023/08/02 03:04:36;;;;;;;11.88;5.70;;;;;;;11.30;97.65;95096.06;2066447;28;20053;-58
2023/08/02 03:05:38;;;;;;;8.93;5.43;;;;;;;11.29;98.04;95084.00;2066012;28;20058;-58
2023/08/02 03:06:39;;;;;;;10.85;5.28;;;;;;;11.31;97.95;95095.97;2066133;28;20054;-58
2023/08/02 03:07:40;;;;;;;9.65;5.47;;;;;;;11.29;97.78;95094.41;2066643;28;20559;-57
2023/08/02 03:08:42;;;;;;;9.32;5.47;;;;;;;11.29;97.54;95094.41;2065670;28;20402;-57
2023/08/02 03:09:43;;;;;;;11.57;5.32;;;;;;;11.26;97.98;95091.06;2066039;28;20054;-58
2023/08/02 03:10:44;;;;;;;12.15;5.75;;;;;;;11.27;98.47;95102.28;2066833;28;20061;-58
2023/08/02 03:11:45;;;;;;;9.07;5.40;;;;;;;11.17;98.29;95076.09;2057697;28;20050;-57
2023/08/02 03:12:47;;;;;;;6.97;5.45;;;;;;;11.22;97.75;95093.97;2057278;28;20061;-58
2023/08/02 03:13:48;;;;;;;9.00;4.85;;;;;;;11.22;98.18;95086.16;2065868;28;20053;-57
2023/08/02 03:14:49;;;;;;;8.32;5.20;;;;;;;11.19;98.38;95084.59;2066094;28;20058;-57
2023/08/02 03:15:50;;;;;;;11.65;5.70;;;;;;;11.21;98.34;95085.34;2066866;28;20054;-57
2023/08/02 03:16:51;;;;;;;11.35;5.82;;;;;;;11.22;97.71;95083.56;2066849;28;20483;-58
2023/08/02 03:17:53;;;;;;;10.70;5.68;;;;;;;11.22;98.15;95084.38;2066097;28;20050;-55
2023/08/02 03:18:54;;;;;;;9.10;5.63;;;;;;;11.22;98.35;95076.59;2066978;28;20050;-58
2023/08/02 03:19:55;;;;;;;9.02;5.53;;;;;;;11.23;97.66;95080.88;2066502;28;20058;-57
2023/08/02 03:20:57;;;;;;;13.05;5.88;;;;;;;11.22;98.33;95078.38;2066771;28;20046;-58
2023/08/02 03:21:58;;;;;;;13.30;5.78;;;;;;;11.21;97.67;95080.13;2066244;28;20061;-58
2023/08/02 03:22:59;;;;;;;12.77;5.63;;;;;;;11.20;97.52;95078.47;2066617;28;20057;-58
2023/08/02 03:24:00;;;;;;;12.27;5.55;;;;;;;11.21;98.11;95077.53;2066739;28;20482;-58
2023/08/02 03:25:01;;;;;;;9.98;5.78;;;;;;;11.20;97.63;95072.44;2066757;28;20058;-57
2023/08/02 03:26:02;;;;;;;11.63;5.78;;;;;;;11.17;97.87;95070.88;2066219;28;20046;-58
2023/08/02 03:27:04;;;;;;;7.20;5.47;;;;;;;11.14;98.40;95076.25;2066699;28;20077;-58
2023/08/02 03:28:05;;;;;;;10.52;5.38;;;;;;;11.15;98.09;95066.72;2066591;28;20410;-57
2023/08/02 03:29:06;;;;;;;11.23;5.85;;;;;;;11.19;97.72;95079.41;2066441;28;20054;-58
2023/08/02 03:30:07;;;;;;;11.25;5.88;;;;;;;11.19;98.43;95071.59;2066718;28;20046;-58
2023/08/02 03:31:08;;;;;;;10.93;5.80;;;;;;;11.18;97.88;95072.53;2066120;28;20054;-58
2023/08/02 03:32:09;;;;;;;9.32;5.53;;;;;;;11.18;98.21;95076.91;2066577;28;20058;-58
2023/08/02 03:33:11;;;;;;;11.43;5.60;;;;;;;11.14;98.48;95070.22;2065939;28;20062;-58
2023/08/02 03:34:12;;;;;;;10.45;6.35;;;;;;;11.13;97.75;95066.81;2057455;28;20079;-57
2023/08/02 03:35:14;;;;;;;9.88;5.50;;;;;;;11.13;97.92;95073.78;2058083;28;20082;-58
2023/08/02 03:36:15;;;;;;;8.52;5.88;;;;;;;11.06;97.83;95062.91;2065893;28;20054;-57
2023/08/02 03:37:17;;;;;;;10.10;5.93;;;;;;;11.10;98.00;95069.59;2066574;28;20054;-57
2023/08/02 03:38:18;;;;;;;10.35;6.03;;;;;;;11.10;97.93;95072.19;2066304;28;20051;-57
2023/08/02 03:39:19;;;;;;;10.95;6.07;;;;;;;11.08;98.41;95075.81;2066730;28;20390;-58
2023/08/02 03:40:20;;;;;;;9.57;6.07;;;;;;;11.07;98.11;95068.97;2066613;28;20046;-57
2023/08/02 03:41:21;;;;;;;10.32;5.50;;;;;;;11.08;98.72;95065.44;2065637;28;20058;-57
2023/08/02 03:42:23;;;;;;;10.00;5.70;;;;;;;11.09;98.25;95061.88;2066570;28;20139;-58
2023/08/02 03:43:24;;;;;;;9.93;6.07;;;;;;;11.08;98.59;95058.47;2066333;28;20056;-58
2023/08/02 03:44:25;;;;;;;12.88;6.07;;;;;;;11.05;98.39;95058.66;2066134;28;20058;-58
2023/08/02 03:45:26;;;;;;;9.30;5.35;;;;;;;11.05;98.03;95053.47;2065534;28;20065;-57
2023/08/02 03:46:27;;;;;;;9.40;5.80;;;;;;;11.05;98.40;95048.28;2065879;28;20058;-58
2023/08/02 03:47:29;;;;;;;14.57;6.50;;;;;;;11.06;98.13;95056.91;2065838;28;20062;-58
2023/08/02 03:48:31;;;;;;;11.10;6.20;;;;;;;10.99;98.99;95036.50;2065181;28;20050;-57
2023/08/02 03:49:32;;;;;;;10.68;6.07;;;;;;;11.06;98.29;95049.09;2065644;28;20054;-58
2023/08/02 03:50:34;;;;;;;11.32;5.70;;;;;;;11.05;98.65;95045.69;2065753;28;20062;-58
2023/08/02 03:51:35;;;;;;;8.60;5.78;;;;;;;11.04;98.26;95044.84;2066214;28;20062;-57
2023/08/02 03:52:36;;;;;;;13.27;6.38;;;;;;;11.07;98.46;95043.81;2066308;28;20061;-58
2023/08/02 03:53:37;;;;;;;9.05;5.80;;;;;;;11.11;98.25;95041.84;2066021;28;20042;-57
2023/08/02 03:54:39;;;;;;;12.38;6.55;;;;;;;11.12;98.18;95044.38;2065441;28;20061;-58
2023/08/02 03:55:40;;;;;;;9.23;6.15;;;;;;;11.06;98.25;95031.75;2066390;28;20150;-57
2023/08/02 03:56:41;;;;;;;11.20;5.97;;;;;;;11.18;98.42;95037.94;2066141;28;20054;-57
2023/08/02 03:57:42;;;;;;;9.50;6.00;;;;;;;11.12;97.85;95027.91;2065700;28;20400;-57
2023/08/02 03:58:43;;;;;;;10.90;5.95;;;;;;;11.24;98.15;95043.56;2066300;28;20042;-57
2023/08/02 03:59:45;;;;;;;8.60;5.57;;;;;;;11.21;97.86;95035.97;2065906;28;20058;-57
2023/08/02 04:00:46;;;;;;;10.10;5.78;;;;;;;11.32;98.10;95045.66;2066294;28;20047;-58
2023/08/02 04:01:47;;;;;;;11.90;6.22;;;;;;;11.37;97.67;95051.38;2066344;28;20410;-57
2023/08/02 04:02:48;;;;;;;9.60;5.13;;;;;;;11.34;96.87;95028.19;2066479;28;20062;-57
2023/08/02 04:03:49;;;;;;;12.60;5.70;;;;;;;11.48;97.09;95042.88;2065737;28;20054;-58
2023/08/02 04:04:50;;;;;;;12.32;5.93;;;;;;;11.55;96.56;95035.53;2066620;28;20046;-58
2023/08/02 04:05:51;;;;;;;8.07;5.13;;;;;;;11.65;96.43;95033.97;2066448;28;20073;-57
2023/08/02 04:06:53;;;;;;;10.55;5.38;;;;;;;11.62;95.78;95032.41;2066230;28;20058;-57
2023/08/02 04:07:54;;;;;;;8.82;5.28;;;;;;;11.62;94.93;95029.78;2066443;28;20481;-58
2023/08/02 04:08:55;;;;;;;8.40;5.13;;;;;;;11.63;94.94;95031.47;2066578;28;20050;-57
2023/08/02 04:09:56;;;;;;;17.38;5.70;;;;;;;11.66;95.21;95026.06;2066405;28;20057;-57
2023/08/02 04:11:03;;;;;;;7.57;4.72;;;;;;;11.70;94.81;95016.28;2065805;28;20512;-58
2023/08/02 04:12:04;;;;;;;8.98;5.00;;;;;;;11.73;94.36;95017.84;2065874;28;20050;-57
2023/08/02 04:13:05;;;;;;;10.70;5.22;;;;;;;11.60;94.64;94995.28;2065977;28;20046;-58
2023/08/02 04:14:06;;;;;;;7.78;5.50;;;;;;;11.76;94.64;95002.03;2065943;28;20046;-57
2023/08/02 04:15:08;;;;;;;8.15;5.03;;;;;;;11.77;94.02;94994.13;2065701;28;20454;-58
2023/08/02 04:16:09;;;;;;;8.45;5.07;;;;;;;11.80;94.34;94980.91;2065866;28;20057;-57
2023/08/02 04:17:10;;;;;;;7.45;5.13;;;;;;;11.85;94.07;94984.03;2066019;28;20046;-57
2023/08/02 04:18:11;;;;;;;10.60;5.10;;;;;;;11.91;93.80;94994.06;2066585;28;20046;-57
2023/08/02 04:19:13;;;;;;;9.40;5.47;;;;;;;11.92;93.55;94989.66;2065992;28;20058;-57
2023/08/02 04:20:14;;;;;;;10.00;5.28;;;;;;;11.96;93.83;94996.34;2065865;28;20053;-58
2023/08/02 04:21:19;;;;;;;8.60;5.07;;;;;;;12.02;92.92;95003.72;2066102;28;20046;-57
2023/08/02 04:22:20;;;;;;;9.48;4.68;;;;;;;12.10;93.21;95000.59;2066096;28;20054;-57
2023/08/02 04:23:22;;;;;;;8.70;4.90;;;;;;;12.22;93.09;95004.13;2066178;28;20402;-58
2023/08/02 04:24:23;;;;;;;9.07;5.47;;;;;;;12.38;92.37;95007.34;2066515;28;20046;-59
2023/08/02 04:25:24;;;;;;;12.60;4.80;;;;;;;12.48;91.35;95005.75;2066520;28;20051;-58
2023/08/02 04:26:25;;;;;;;7.55;4.60;;;;;;;12.62;90.60;95006.56;2066062;28;20062;-58
2023/08/02 04:27:26;;;;;;;7.03;4.63;;;;;;;12.76;89.47;95012.44;2065479;28;20077;-57
2023/08/02 04:28:27;;;;;;;8.65;4.38;;;;;;;12.81;88.72;95004.28;2065955;28;20054;-58
2023/08/02 04:29:28;;;;;;;8.82;4.47;;;;;;;12.99;88.50;95004.72;2065789;28;20058;-57
2023/08/02 04:30:30;;;;;;;8.57;4.82;;;;;;;13.03;87.54;95004.41;2066741;28;20410;-59
2023/08/02 04:31:31;;;;;;;8.25;4.35;;;;;;;12.98;87.02;95000.47;2066536;28;20065;-58
2023/08/02 04:32:32;;;;;;;6.68;4.30;;;;;;;13.01;86.73;95001.06;2066231;28;20046;-58
2023/08/02 04:33:33;;;;;;;9.57;4.50;;;;;;;12.95;87.17;95005.91;2065814;28;20065;-58
2023/08/02 04:34:34;;;;;;;8.60;4.22;;;;;;;12.83;86.55;94997.22;2065251;28;20061;-58
2023/08/02 04:35:35;;;;;;;8.60;4.65;;;;;;;12.64;87.47;94986.41;2066146;28;20050;-57
2023/08/02 04:36:36;;;;;;;7.40;4.78;;;;;;;12.54;88.34;94987.09;2066284;28;20402;-57
2023/08/02 04:37:37;;;;;;;8.15;4.80;;;;;;;12.33;88.93;94965.16;2065834;28;20054;-57
2023/08/02 04:38:38;;;;;;;8.60;4.55;;;;;;;12.34;89.10;94970.25;2065758;28;20057;-58
2023/08/02 04:39:39;;;;;;;8.05;4.60;;;;;;;12.39;89.60;94976.91;2065538;28;20061;-58
2023/08/02 04:40:41;;;;;;;6.38;4.45;;;;;;;12.40;89.83;94973.38;2065692;28;20062;-57
2023/08/02 04:41:42;;;;;;;10.45;5.13;;;;;;;12.40;89.24;94976.78;2066185;28;20057;-57
2023/08/02 04:42:43;;;;;;;9.05;4.55;;;;;;;12.40;90.07;94968.97;2065732;28;20084;-57
2023/08/02 04:43:46;;;;;;;9.73;4.85;;;;;;;12.44;89.78;94972.22;2066012;28;20061;-57
2023/08/02 04:44:47;;;;;;;6.95;4.45;;;;;;;12.40;89.75;94968.16;2065681;28;20054;-57
2023/08/02 04:45:48;;;;;;;9.23;4.72;;;;;;;12.42;89.28;94967.09;2065943;28;20066;-58
2023/08/02 04:46:49;;;;;;;7.43;4.65;;;;;;;12.38;89.51;94970.06;2065839;28;20513;-58
2023/08/02 04:47:50;;;;;;;9.02;4.85;;;;;;;12.39;89.75;94962.13;2065689;28;20054;-58
2023/08/02 04:48:51;;;;;;;12.07;5.00;;;;;;;12.41;89.78;94967.22;2065614;28;20061;-57